Sumner, Nebraska
Current Conditions -  °F | °C
As of 5:15 AM on Friday 28 Nov 2014 (Local Time) from KLXN Reporting Station
Clear Clear  
Wind Chill: 16°   Ceiling: Unl
Heat Index: 24°   Visibility: 10mi
Dew Point: 20°   Wind: 7mph
Humidity: 84%   Direction: 260°W
Pressure: 29.89"   Gusts: NA
Location:  40.95°N, 99.51°W
Report Text: KLXN 281115Z AUTO 26006KT 10SM CLR M04/M07 A2989 RMK AO2 T10451069
Loading
Personal Weather Stations






























Interactive Weather Map New forecast layout! Learn more

10-Day Weather Forecast

Advertisements
Track Severe Weather on mobile